sensor_id;sensor_type;location;lat;lon;timestamp;pressure;altitude;pressure_sealevel;temperature;humidity
75221;BME280;63802;53.232;6.570;2022-10-16T00:01:23;100876.91;;;11.87;88.00
75221;BME280;63802;53.232;6.570;2022-10-16T00:03:49;100888.97;;;11.82;88.31
75221;BME280;63802;53.232;6.570;2022-10-16T00:06:17;100879.25;;;11.85;88.05
75221;BME280;63802;53.232;6.570;2022-10-16T00:08:43;100883.91;;;11.84;88.18
75221;BME280;63802;53.232;6.570;2022-10-16T00:11:15;100876.09;;;11.83;88.19
75221;BME280;63802;53.232;6.570;2022-10-16T00:13:42;100871.19;;;11.69;88.07
75221;BME280;63802;53.232;6.570;2022-10-16T00:16:09;100886.13;;;11.75;88.47
75221;BME280;63802;53.232;6.570;2022-10-16T00:18:36;100876.75;;;11.76;88.42
75221;BME280;63802;53.232;6.570;2022-10-16T00:21:08;100879.91;;;11.78;88.26
75221;BME280;63802;53.232;6.570;2022-10-16T00:23:35;100888.44;;;11.73;88.55
75221;BME280;63802;53.232;6.570;2022-10-16T00:26:04;100890.31;;;11.69;88.82
75221;BME280;63802;53.232;6.570;2022-10-16T00:28:30;100878.94;;;11.67;88.83
75221;BME280;63802;53.232;6.570;2022-10-16T00:30:56;100873.38;;;11.60;88.99
75221;BME280;63802;53.232;6.570;2022-10-16T00:33:22;100874.78;;;11.73;88.92
75221;BME280;63802;53.232;6.570;2022-10-16T00:35:48;100858.44;;;11.54;89.02
75221;BME280;63802;53.232;6.570;2022-10-16T00:38:14;100873.47;;;11.67;88.98
75221;BME280;63802;53.232;6.570;2022-10-16T00:40:39;100884.53;;;11.74;88.90
75221;BME280;63802;53.232;6.570;2022-10-16T00:43:33;100881.50;;;11.79;88.62
75221;BME280;63802;53.232;6.570;2022-10-16T00:46:01;100870.47;;;11.72;88.70
75221;BME280;63802;53.232;6.570;2022-10-16T00:48:28;100862.63;;;11.71;88.54
75221;BME280;63802;53.232;6.570;2022-10-16T00:50:54;100868.13;;;11.74;88.74
75221;BME280;63802;53.232;6.570;2022-10-16T00:53:21;100861.94;;;11.77;88.62
75221;BME280;63802;53.232;6.570;2022-10-16T00:55:47;100865.41;;;11.74;88.28
75221;BME280;63802;53.232;6.570;2022-10-16T00:58:12;100868.34;;;11.88;87.79
75221;BME280;63802;53.232;6.570;2022-10-16T01:00:38;100876.94;;;11.90;87.70
75221;BME280;63802;53.232;6.570;2022-10-16T01:03:29;100863.66;;;11.89;87.68
75221;BME280;63802;53.232;6.570;2022-10-16T01:06:05;100861.44;;;11.98;87.18
75221;BME280;63802;53.232;6.570;2022-10-16T01:11:28;100852.41;;;11.94;86.92
75221;BME280;63802;53.232;6.570;2022-10-16T01:14:00;100865.25;;;11.90;87.51
75221;BME280;63802;53.232;6.570;2022-10-16T01:16:36;100861.25;;;11.84;88.09
75221;BME280;63802;53.232;6.570;2022-10-16T01:19:09;100866.31;;;11.82;87.95
75221;BME280;63802;53.232;6.570;2022-10-16T01:21:41;100852.44;;;11.68;87.95
75221;BME280;63802;53.232;6.570;2022-10-16T01:24:33;100865.88;;;11.80;88.00
75221;BME280;63802;53.232;6.570;2022-10-16T01:29:59;100870.66;;;11.86;87.40
75221;BME280;63802;53.232;6.570;2022-10-16T01:35:03;100871.81;;;11.85;87.61
75221;BME280;63802;53.232;6.570;2022-10-16T01:37:40;100876.84;;;11.83;87.59
75221;BME280;63802;53.232;6.570;2022-10-16T01:40:12;100876.22;;;11.93;87.14
75221;BME280;63802;53.232;6.570;2022-10-16T01:42:42;100857.31;;;11.81;87.17
75221;BME280;63802;53.232;6.570;2022-10-16T01:45:11;100874.50;;;11.82;87.12
75221;BME280;63802;53.232;6.570;2022-10-16T01:47:39;100857.22;;;11.74;87.05
75221;BME280;63802;53.232;6.570;2022-10-16T01:50:06;100861.25;;;11.84;86.95
75221;BME280;63802;53.232;6.570;2022-10-16T01:52:37;100873.00;;;11.88;86.84
75221;BME280;63802;53.232;6.570;2022-10-16T01:55:09;100871.56;;;11.97;86.33
75221;BME280;63802;53.232;6.570;2022-10-16T01:57:39;100875.44;;;11.93;86.55
75221;BME280;63802;53.232;6.570;2022-10-16T02:00:10;100873.44;;;11.90;86.53
75221;BME280;63802;53.232;6.570;2022-10-16T02:02:39;100875.28;;;11.82;87.03
75221;BME280;63802;53.232;6.570;2022-10-16T02:07:35;100881.69;;;11.93;86.58
75221;BME280;63802;53.232;6.570;2022-10-16T02:10:00;100884.94;;;12.02;86.14
75221;BME280;63802;53.232;6.570;2022-10-16T02:12:29;100880.22;;;11.99;86.33
75221;BME280;63802;53.232;6.570;2022-10-16T02:14:56;100877.50;;;11.99;85.88
75221;BME280;63802;53.232;6.570;2022-10-16T02:17:23;100876.31;;;12.00;85.67
75221;BME280;63802;53.232;6.570;2022-10-16T02:19:50;100878.31;;;12.03;85.75
75221;BME280;63802;53.232;6.570;2022-10-16T02:22:32;100889.56;;;11.98;86.06
75221;BME280;63802;53.232;6.570;2022-10-16T02:25:12;100876.31;;;12.00;85.68
75221;BME280;63802;53.232;6.570;2022-10-16T02:30:50;100888.16;;;12.08;85.27
75221;BME280;63802;53.232;6.570;2022-10-16T02:33:17;100866.16;;;12.01;85.56
75221;BME280;63802;53.232;6.570;2022-10-16T02:35:46;100888.97;;;12.12;85.17
75221;BME280;63802;53.232;6.570;2022-10-16T02:38:14;100873.44;;;12.20;84.78
75221;BME280;63802;53.232;6.570;2022-10-16T02:40:40;100874.53;;;12.12;85.31
75221;BME280;63802;53.232;6.570;2022-10-16T02:43:06;100876.47;;;12.11;85.11
75221;BME280;63802;53.232;6.570;2022-10-16T02:45:32;100878.50;;;12.18;84.91
75221;BME280;63802;53.232;6.570;2022-10-16T02:47:58;100878.81;;;12.13;84.71
75221;BME280;63802;53.232;6.570;2022-10-16T02:50:23;100893.69;;;12.12;84.61
75221;BME280;63802;53.232;6.570;2022-10-16T02:52:50;100884.09;;;11.98;85.33
75221;BME280;63802;53.232;6.570;2022-10-16T02:55:15;100893.56;;;12.04;85.08
75221;BME280;63802;53.232;6.570;2022-10-16T02:57:41;100897.56;;;12.10;84.43
75221;BME280;63802;53.232;6.570;2022-10-16T03:00:09;100891.25;;;12.06;84.89
75221;BME280;63802;53.232;6.570;2022-10-16T03:02:35;100890.38;;;11.99;84.74
75221;BME280;63802;53.232;6.570;2022-10-16T03:05:00;100888.88;;;12.05;84.43
75221;BME280;63802;53.232;6.570;2022-10-16T03:07:25;100894.34;;;12.05;84.62
75221;BME280;63802;53.232;6.570;2022-10-16T03:09:51;100891.16;;;11.99;84.86
75221;BME280;63802;53.232;6.570;2022-10-16T03:12:16;100891.47;;;11.94;85.04
75221;BME280;63802;53.232;6.570;2022-10-16T03:14:42;100894.66;;;12.00;84.66
75221;BME280;63802;53.232;6.570;2022-10-16T03:17:07;100889.56;;;11.98;84.57
75221;BME280;63802;53.232;6.570;2022-10-16T03:19:33;100881.78;;;12.00;84.53
75221;BME280;63802;53.232;6.570;2022-10-16T03:21:58;100899.09;;;12.08;84.20
75221;BME280;63802;53.232;6.570;2022-10-16T03:24:23;100892.50;;;12.13;83.42
75221;BME280;63802;53.232;6.570;2022-10-16T03:26:48;100892.09;;;12.10;83.89
75221;BME280;63802;53.232;6.570;2022-10-16T03:29:14;100900.19;;;12.03;84.11
75221;BME280;63802;53.232;6.570;2022-10-16T03:31:39;100902.84;;;11.96;84.90
75221;BME280;63802;53.232;6.570;2022-10-16T03:34:05;100909.13;;;12.00;84.69
75221;BME280;63802;53.232;6.570;2022-10-16T03:36:30;100907.47;;;12.22;83.53
75221;BME280;63802;53.232;6.570;2022-10-16T03:38:56;100899.97;;;12.16;84.05
75221;BME280;63802;53.232;6.570;2022-10-16T03:41:21;100892.00;;;12.03;84.24
75221;BME280;63802;53.232;6.570;2022-10-16T03:43:46;100905.16;;;12.24;83.55
75221;BME280;63802;53.232;6.570;2022-10-16T03:46:12;100896.03;;;12.13;83.74
75221;BME280;63802;53.232;6.570;2022-10-16T03:48:37;100912.06;;;12.15;83.76
75221;BME280;63802;53.232;6.570;2022-10-16T03:51:02;100918.63;;;12.06;84.25
75221;BME280;63802;53.232;6.570;2022-10-16T03:53:28;100913.81;;;12.00;84.63
75221;BME280;63802;53.232;6.570;2022-10-16T03:55:53;100931.84;;;12.04;84.78
75221;BME280;63802;53.232;6.570;2022-10-16T03:58:19;100909.22;;;12.07;84.53
75221;BME280;63802;53.232;6.570;2022-10-16T04:00:45;100913.59;;;12.12;84.22
75221;BME280;63802;53.232;6.570;2022-10-16T04:03:12;100923.31;;;12.09;84.23
75221;BME280;63802;53.232;6.570;2022-10-16T04:05:37;100910.72;;;12.01;84.45
75221;BME280;63802;53.232;6.570;2022-10-16T04:08:03;100917.84;;;12.09;84.29
75221;BME280;63802;53.232;6.570;2022-10-16T04:10:29;100910.72;;;12.01;84.82
75221;BME280;63802;53.232;6.570;2022-10-16T04:12:55;100917.22;;;11.90;85.15
75221;BME280;63802;53.232;6.570;2022-10-16T04:15:22;100917.44;;;11.81;85.52
75221;BME280;63802;53.232;6.570;2022-10-16T04:17:48;100924.50;;;11.82;85.83
75221;BME280;63802;53.232;6.570;2022-10-16T04:20:13;100939.09;;;11.67;86.21
75221;BME280;63802;53.232;6.570;2022-10-16T04:22:39;100935.22;;;11.68;86.62
75221;BME280;63802;53.232;6.570;2022-10-16T04:25:04;100936.91;;;11.76;86.28
75221;BME280;63802;53.232;6.570;2022-10-16T04:27:30;100935.69;;;11.74;86.48
75221;BME280;63802;53.232;6.570;2022-10-16T04:29:57;100942.38;;;11.76;86.49
75221;BME280;63802;53.232;6.570;2022-10-16T04:32:22;100952.69;;;11.64;86.81
75221;BME280;63802;53.232;6.570;2022-10-16T04:34:48;100960.84;;;11.60;87.32
75221;BME280;63802;53.232;6.570;2022-10-16T04:37:14;100958.94;;;11.64;87.46
75221;BME280;63802;53.232;6.570;2022-10-16T04:39:39;100965.94;;;11.62;87.54
75221;BME280;63802;53.232;6.570;2022-10-16T04:42:04;100964.25;;;11.76;86.73
75221;BME280;63802;53.232;6.570;2022-10-16T04:44:30;100966.53;;;11.71;87.19
75221;BME280;63802;53.232;6.570;2022-10-16T04:46:55;100973.50;;;11.68;87.46
75221;BME280;63802;53.232;6.570;2022-10-16T04:49:20;100976.66;;;11.70;87.36
75221;BME280;63802;53.232;6.570;2022-10-16T04:51:46;100963.44;;;11.76;87.42
75221;BME280;63802;53.232;6.570;2022-10-16T04:54:11;100985.81;;;11.81;87.07
75221;BME280;63802;53.232;6.570;2022-10-16T04:56:36;100997.91;;;11.80;87.32
75221;BME280;63802;53.232;6.570;2022-10-16T04:59:11;100996.53;;;11.93;87.13
75221;BME280;63802;53.232;6.570;2022-10-16T05:01:36;100991.81;;;11.90;87.83
75221;BME280;63802;53.232;6.570;2022-10-16T05:04:02;100995.09;;;11.99;87.35
75221;BME280;63802;53.232;6.570;2022-10-16T05:06:27;100968.41;;;11.93;87.99
75221;BME280;63802;53.232;6.570;2022-10-16T05:08:52;100977.09;;;11.98;88.23
75221;BME280;63802;53.232;6.570;2022-10-16T05:11:18;100969.78;;;12.06;87.21
75221;BME280;63802;53.232;6.570;2022-10-16T05:13:43;100983.47;;;12.06;87.53
75221;BME280;63802;53.232;6.570;2022-10-16T05:16:08;100981.94;;;12.08;87.61
75221;BME280;63802;53.232;6.570;2022-10-16T05:18:33;101000.66;;;12.06;88.07
75221;BME280;63802;53.232;6.570;2022-10-16T05:20:59;100989.28;;;12.04;87.97
75221;BME280;63802;53.232;6.570;2022-10-16T05:23:24;100985.72;;;12.00;88.33
75221;BME280;63802;53.232;6.570;2022-10-16T05:25:55;100991.25;;;12.04;88.45
75221;BME280;63802;53.232;6.570;2022-10-16T05:28:23;100991.19;;;12.00;88.21
75221;BME280;63802;53.232;6.570;2022-10-16T05:30:48;100996.25;;;11.98;89.26
75221;BME280;63802;53.232;6.570;2022-10-16T05:33:13;101006.03;;;11.99;88.65
75221;BME280;63802;53.232;6.570;2022-10-16T05:35:39;100993.91;;;12.00;88.30
75221;BME280;63802;53.232;6.570;2022-10-16T05:38:04;100989.28;;;12.04;88.41
75221;BME280;63802;53.232;6.570;2022-10-16T05:40:29;101006.66;;;12.16;88.21
75221;BME280;63802;53.232;6.570;2022-10-16T05:42:55;100998.34;;;12.08;88.39
75221;BME280;63802;53.232;6.570;2022-10-16T05:45:20;100997.06;;;12.02;88.07
75221;BME280;63802;53.232;6.570;2022-10-16T05:47:46;101009.22;;;12.05;88.36
75221;BME280;63802;53.232;6.570;2022-10-16T05:50:11;101005.34;;;12.06;88.39
75221;BME280;63802;53.232;6.570;2022-10-16T05:52:37;101010.03;;;12.05;88.62
75221;BME280;63802;53.232;6.570;2022-10-16T05:55:03;101019.03;;;12.06;88.47
75221;BME280;63802;53.232;6.570;2022-10-16T05:57:28;101003.31;;;11.99;88.40
75221;BME280;63802;53.232;6.570;2022-10-16T05:59:54;101018.66;;;12.07;88.60
75221;BME280;63802;53.232;6.570;2022-10-16T06:02:19;101021.38;;;12.07;88.54
75221;BME280;63802;53.232;6.570;2022-10-16T06:04:45;101029.59;;;12.07;88.63
75221;BME280;63802;53.232;6.570;2022-10-16T06:07:10;101033.50;;;12.06;88.44
75221;BME280;63802;53.232;6.570;2022-10-16T06:09:37;101030.66;;;11.99;88.44
75221;BME280;63802;53.232;6.570;2022-10-16T06:12:02;101037.25;;;11.98;88.80
75221;BME280;63802;53.232;6.570;2022-10-16T06:14:28;101034.84;;;11.93;89.07
75221;BME280;63802;53.232;6.570;2022-10-16T06:16:53;101051.31;;;11.97;89.13
75221;BME280;63802;53.232;6.570;2022-10-16T06:19:18;101039.47;;;11.89;89.27
75221;BME280;63802;53.232;6.570;2022-10-16T06:21:44;101045.09;;;12.00;89.35
75221;BME280;63802;53.232;6.570;2022-10-16T06:24:09;101043.94;;;12.01;89.25
75221;BME280;63802;53.232;6.570;2022-10-16T06:26:35;101042.84;;;12.05;89.09
75221;BME280;63802;53.232;6.570;2022-10-16T06:29:00;101053.84;;;12.09;88.93
75221;BME280;63802;53.232;6.570;2022-10-16T06:31:27;101047.69;;;12.16;88.98
75221;BME280;63802;53.232;6.570;2022-10-16T06:33:54;101043.03;;;12.16;88.70
75221;BME280;63802;53.232;6.570;2022-10-16T06:36:20;101052.44;;;12.19;88.74
75221;BME280;63802;53.232;6.570;2022-10-16T06:38:46;101052.13;;;12.24;88.31
75221;BME280;63802;53.232;6.570;2022-10-16T06:41:14;101061.59;;;12.30;88.13
75221;BME280;63802;53.232;6.570;2022-10-16T06:43:40;101061.22;;;12.31;88.46
75221;BME280;63802;53.232;6.570;2022-10-16T06:46:07;101065.94;;;12.31;88.23
75221;BME280;63802;53.232;6.570;2022-10-16T06:48:35;101067.44;;;12.28;88.26
75221;BME280;63802;53.232;6.570;2022-10-16T06:51:05;101060.75;;;12.26;88.13
75221;BME280;63802;53.232;6.570;2022-10-16T06:53:33;101076.22;;;12.41;88.00
75221;BME280;63802;53.232;6.570;2022-10-16T06:56:13;101094.16;;;12.38;88.33
75221;BME280;63802;53.232;6.570;2022-10-16T06:58:39;101075.38;;;12.37;88.31
75221;BME280;63802;53.232;6.570;2022-10-16T07:01:05;101069.81;;;12.30;88.03
75221;BME280;63802;53.232;6.570;2022-10-16T07:03:31;101088.06;;;12.48;87.84
75221;BME280;63802;53.232;6.570;2022-10-16T07:05:56;101089.66;;;12.49;87.96
75221;BME280;63802;53.232;6.570;2022-10-16T07:08:22;101097.50;;;12.51;87.94
75221;BME280;63802;53.232;6.570;2022-10-16T07:10:47;101109.28;;;12.55;87.58
75221;BME280;63802;53.232;6.570;2022-10-16T07:13:13;101107.72;;;12.54;87.68
75221;BME280;63802;53.232;6.570;2022-10-16T07:15:39;101116.75;;;12.58;87.51
75221;BME280;63802;53.232;6.570;2022-10-16T07:18:05;101122.63;;;12.56;87.86
75221;BME280;63802;53.232;6.570;2022-10-16T07:20:31;101126.56;;;12.59;87.39
75221;BME280;63802;53.232;6.570;2022-10-16T07:22:56;101136.81;;;12.65;86.92
75221;BME280;63802;53.232;6.570;2022-10-16T07:25:22;101147.03;;;12.68;86.85
75221;BME280;63802;53.232;6.570;2022-10-16T07:27:47;101145.94;;;12.73;86.50
75221;BME280;63802;53.232;6.570;2022-10-16T07:30:12;101154.56;;;12.75;86.54
75221;BME280;63802;53.232;6.570;2022-10-16T07:32:38;101152.25;;;12.77;86.38
75221;BME280;63802;53.232;6.570;2022-10-16T07:35:04;101166.75;;;12.77;86.49
75221;BME280;63802;53.232;6.570;2022-10-16T07:37:29;101174.56;;;12.79;86.71
75221;BME280;63802;53.232;6.570;2022-10-16T07:39:54;101170.59;;;12.73;87.23
75221;BME280;63802;53.232;6.570;2022-10-16T07:42:20;101152.34;;;12.58;87.37
75221;BME280;63802;53.232;6.570;2022-10-16T07:44:45;101163.41;;;12.65;87.82
75221;BME280;63802;53.232;6.570;2022-10-16T07:47:10;101179.09;;;12.68;88.33
75221;BME280;63802;53.232;6.570;2022-10-16T07:49:36;101171.63;;;12.65;88.37
75221;BME280;63802;53.232;6.570;2022-10-16T07:52:01;101171.19;;;12.63;88.02
75221;BME280;63802;53.232;6.570;2022-10-16T07:54:26;101190.06;;;12.68;88.07
75221;BME280;63802;53.232;6.570;2022-10-16T07:56:52;101188.91;;;12.69;88.20
75221;BME280;63802;53.232;6.570;2022-10-16T07:59:20;101183.78;;;12.67;87.77
75221;BME280;63802;53.232;6.570;2022-10-16T08:01:45;101177.59;;;12.70;87.72
75221;BME280;63802;53.232;6.570;2022-10-16T08:04:11;101175.47;;;12.60;88.55
75221;BME280;63802;53.232;6.570;2022-10-16T08:06:38;101190.69;;;12.58;88.83
75221;BME280;63802;53.232;6.570;2022-10-16T08:09:04;101182.66;;;12.46;88.92
75221;BME280;63802;53.232;6.570;2022-10-16T08:11:29;101195.72;;;12.56;88.95
75221;BME280;63802;53.232;6.570;2022-10-16T08:13:55;101192.03;;;12.45;88.95
75221;BME280;63802;53.232;6.570;2022-10-16T08:16:21;101200.47;;;12.59;88.60
75221;BME280;63802;53.232;6.570;2022-10-16T08:18:46;101219.09;;;12.72;88.72
75221;BME280;63802;53.232;6.570;2022-10-16T08:21:17;101226.19;;;12.77;88.36
75221;BME280;63802;53.232;6.570;2022-10-16T08:23:46;101222.72;;;12.80;88.32
75221;BME280;63802;53.232;6.570;2022-10-16T08:26:12;101239.88;;;13.00;88.46
75221;BME280;63802;53.232;6.570;2022-10-16T08:28:38;101246.72;;;13.13;87.40
75221;BME280;63802;53.232;6.570;2022-10-16T08:31:08;101243.44;;;13.26;86.63
75221;BME280;63802;53.232;6.570;2022-10-16T08:33:34;101252.28;;;13.46;87.13
75221;BME280;63802;53.232;6.570;2022-10-16T08:36:03;101235.34;;;13.67;86.50
75221;BME280;63802;53.232;6.570;2022-10-16T08:38:29;101229.94;;;13.74;84.91
75221;BME280;63802;53.232;6.570;2022-10-16T08:41:09;101245.25;;;14.08;85.18
75221;BME280;63802;53.232;6.570;2022-10-16T08:49:30;101246.66;;;13.95;84.01
75221;BME280;63802;53.232;6.570;2022-10-16T08:51:56;101269.09;;;14.04;84.38
75221;BME280;63802;53.232;6.570;2022-10-16T08:54:28;101265.41;;;14.26;84.79
75221;BME280;63802;53.232;6.570;2022-10-16T08:56:56;101268.66;;;14.32;82.80
75221;BME280;63802;53.232;6.570;2022-10-16T08:59:21;101269.81;;;14.31;82.92
75221;BME280;63802;53.232;6.570;2022-10-16T09:01:50;101276.00;;;14.28;82.15
75221;BME280;63802;53.232;6.570;2022-10-16T09:04:26;101288.28;;;14.34;82.70
75221;BME280;63802;53.232;6.570;2022-10-16T09:07:03;101287.38;;;14.23;81.83
75221;BME280;63802;53.232;6.570;2022-10-16T09:12:37;101299.88;;;14.57;82.24
75221;BME280;63802;53.232;6.570;2022-10-16T09:17:47;101306.44;;;14.42;81.60
75221;BME280;63802;53.232;6.570;2022-10-16T09:20:39;101315.44;;;14.42;81.28
75221;BME280;63802;53.232;6.570;2022-10-16T09:23:25;101315.09;;;14.47;81.60
75221;BME280;63802;53.232;6.570;2022-10-16T09:25:52;101317.56;;;14.56;81.38
75221;BME280;63802;53.232;6.570;2022-10-16T09:28:18;101326.66;;;14.63;81.62
75221;BME280;63802;53.232;6.570;2022-10-16T09:30:45;101344.03;;;14.78;80.83
75221;BME280;63802;53.232;6.570;2022-10-16T09:33:12;101327.66;;;14.85;79.91
75221;BME280;63802;53.232;6.570;2022-10-16T09:35:40;101342.78;;;15.12;80.11
75221;BME280;63802;53.232;6.570;2022-10-16T09:38:07;101335.16;;;15.39;78.73
75221;BME280;63802;53.232;6.570;2022-10-16T09:40:35;101335.19;;;15.42;79.56
75221;BME280;63802;53.232;6.570;2022-10-16T09:43:31;101349.38;;;15.48;77.57
75221;BME280;63802;53.232;6.570;2022-10-16T09:46:06;101344.66;;;15.45;78.99
75221;BME280;63802;53.232;6.570;2022-10-16T09:48:37;101344.81;;;15.70;77.81
75221;BME280;63802;53.232;6.570;2022-10-16T09:51:14;101360.63;;;15.87;77.04
75221;BME280;63802;53.232;6.570;2022-10-16T09:53:44;101350.78;;;15.82;76.69
75221;BME280;63802;53.232;6.570;2022-10-16T09:56:12;101360.66;;;15.90;76.76
75221;BME280;63802;53.232;6.570;2022-10-16T09:58:50;101363.13;;;16.09;76.55
75221;BME280;63802;53.232;6.570;2022-10-16T10:01:16;101365.56;;;16.32;75.70
75221;BME280;63802;53.232;6.570;2022-10-16T10:03:43;101357.66;;;16.27;74.71
75221;BME280;63802;53.232;6.570;2022-10-16T10:06:24;101357.53;;;15.99;74.84
75221;BME280;63802;53.232;6.570;2022-10-16T10:09:22;101379.72;;;16.31;74.87
75221;BME280;63802;53.232;6.570;2022-10-16T10:14:30;101368.84;;;16.66;73.18
75221;BME280;63802;53.232;6.570;2022-10-16T10:19:41;101378.19;;;16.40;72.18
75221;BME280;63802;53.232;6.570;2022-10-16T10:22:24;101374.25;;;16.45;72.08
75221;BME280;63802;53.232;6.570;2022-10-16T10:25:19;101379.94;;;17.08;71.84
75221;BME280;63802;53.232;6.570;2022-10-16T10:30:41;101404.38;;;17.84;69.19
75221;BME280;63802;53.232;6.570;2022-10-16T10:33:25;101400.84;;;17.80;68.32
75221;BME280;63802;53.232;6.570;2022-10-16T10:38:53;101411.47;;;17.92;66.35
75221;BME280;63802;53.232;6.570;2022-10-16T10:44:19;101431.22;;;17.80;66.77
75221;BME280;63802;53.232;6.570;2022-10-16T10:47:13;101429.63;;;17.75;66.03
75221;BME280;63802;53.232;6.570;2022-10-16T10:52:41;101435.00;;;18.35;66.14
75221;BME280;63802;53.232;6.570;2022-10-16T10:55:25;101440.53;;;18.35;65.10
75221;BME280;63802;53.232;6.570;2022-10-16T10:58:06;101437.28;;;18.65;64.15
75221;BME280;63802;53.232;6.570;2022-10-16T11:06:26;101447.75;;;17.94;62.73
75221;BME280;63802;53.232;6.570;2022-10-16T11:09:12;101446.94;;;18.04;62.83
75221;BME280;63802;53.232;6.570;2022-10-16T11:17:14;101451.69;;;17.51;62.54
75221;BME280;63802;53.232;6.570;2022-10-16T11:19:49;101453.28;;;17.94;61.67
75221;BME280;63802;53.232;6.570;2022-10-16T11:24:47;101455.09;;;18.43;60.64
75221;BME280;63802;53.232;6.570;2022-10-16T11:27:21;101453.66;;;19.04;58.94
75221;BME280;63802;53.232;6.570;2022-10-16T11:29:58;101455.06;;;19.29;59.24
75221;BME280;63802;53.232;6.570;2022-10-16T11:32:35;101456.81;;;19.64;58.20
75221;BME280;63802;53.232;6.570;2022-10-16T11:35:18;101452.72;;;19.24;57.81
75221;BME280;63802;53.232;6.570;2022-10-16T11:37:46;101470.91;;;19.29;57.61
75221;BME280;63802;53.232;6.570;2022-10-16T11:40:31;101463.47;;;19.15;56.66
75221;BME280;63802;53.232;6.570;2022-10-16T11:43:06;101465.38;;;19.22;56.91
75221;BME280;63802;53.232;6.570;2022-10-16T11:45:42;101473.75;;;19.73;57.67
75221;BME280;63802;53.232;6.570;2022-10-16T11:48:23;101476.75;;;19.89;55.24
75221;BME280;63802;53.232;6.570;2022-10-16T11:50:53;101476.81;;;19.82;55.99
75221;BME280;63802;53.232;6.570;2022-10-16T11:56:19;101481.06;;;20.35;54.59
75221;BME280;63802;53.232;6.570;2022-10-16T11:59:05;101501.56;;;18.87;54.67
75221;BME280;63802;53.232;6.570;2022-10-16T12:06:52;101507.66;;;18.22;59.61
75221;BME280;63802;53.232;6.570;2022-10-16T12:09:32;101520.31;;;18.19;59.70
75221;BME280;63802;53.232;6.570;2022-10-16T12:11:58;101525.44;;;18.24;60.26
75221;BME280;63802;53.232;6.570;2022-10-16T12:17:03;101523.84;;;18.30;58.95
75221;BME280;63802;53.232;6.570;2022-10-16T12:19:31;101538.50;;;17.99;58.58
75221;BME280;63802;53.232;6.570;2022-10-16T12:22:01;101540.06;;;18.28;60.02
75221;BME280;63802;53.232;6.570;2022-10-16T12:27:00;101553.41;;;18.68;58.63
75221;BME280;63802;53.232;6.570;2022-10-16T12:29:40;101551.84;;;18.36;57.25
75221;BME280;63802;53.232;6.570;2022-10-16T12:32:43;101554.66;;;18.11;58.83
75221;BME280;63802;53.232;6.570;2022-10-16T12:35:21;101548.34;;;17.93;59.57
75221;BME280;63802;53.232;6.570;2022-10-16T12:37:48;101561.38;;;18.28;58.59
75221;BME280;63802;53.232;6.570;2022-10-16T12:40:24;101559.81;;;18.09;58.52
75221;BME280;63802;53.232;6.570;2022-10-16T12:42:51;101559.00;;;17.70;59.47
75221;BME280;63802;53.232;6.570;2022-10-16T12:45:31;101566.88;;;17.61;59.43
75221;BME280;63802;53.232;6.570;2022-10-16T12:48:00;101566.75;;;17.25;62.10
75221;BME280;63802;53.232;6.570;2022-10-16T12:52:57;101570.31;;;16.50;62.02
75221;BME280;63802;53.232;6.570;2022-10-16T12:55:23;101584.66;;;16.19;62.63
75221;BME280;63802;53.232;6.570;2022-10-16T12:58:18;101598.91;;;16.32;62.50
75221;BME280;63802;53.232;6.570;2022-10-16T13:00:57;101577.38;;;16.48;61.93
75221;BME280;63802;53.232;6.570;2022-10-16T13:06:01;101583.56;;;16.31;62.91
75221;BME280;63802;53.232;6.570;2022-10-16T13:08:59;101587.53;;;16.37;62.40
75221;BME280;63802;53.232;6.570;2022-10-16T13:11:55;101600.78;;;16.75;61.83
75221;BME280;63802;53.232;6.570;2022-10-16T13:17:45;101602.19;;;17.13;61.08
75221;BME280;63802;53.232;6.570;2022-10-16T13:20:46;101609.97;;;16.93;61.25
75221;BME280;63802;53.232;6.570;2022-10-16T13:23:47;101614.84;;;16.56;61.43
75221;BME280;63802;53.232;6.570;2022-10-16T13:29:05;101622.88;;;16.28;62.77
75221;BME280;63802;53.232;6.570;2022-10-16T13:31:31;101619.66;;;16.19;62.31
75221;BME280;63802;53.232;6.570;2022-10-16T13:33:58;101625.19;;;16.19;63.34
75221;BME280;63802;53.232;6.570;2022-10-16T13:36:42;101622.66;;;15.99;63.07
75221;BME280;63802;53.232;6.570;2022-10-16T13:39:28;101628.28;;;15.73;63.06
75221;BME280;63802;53.232;6.570;2022-10-16T13:42:21;101635.44;;;15.81;63.27
75221;BME280;63802;53.232;6.570;2022-10-16T13:44:52;101638.63;;;15.83;63.37
75221;BME280;63802;53.232;6.570;2022-10-16T13:47:19;101639.97;;;16.00;62.90
75221;BME280;63802;53.232;6.570;2022-10-16T13:49:46;101637.28;;;16.10;62.30
75221;BME280;63802;53.232;6.570;2022-10-16T13:52:18;101641.59;;;16.04;63.20
75221;BME280;63802;53.232;6.570;2022-10-16T13:54:44;101650.19;;;15.99;62.75
75221;BME280;63802;53.232;6.570;2022-10-16T13:57:13;101647.84;;;16.01;63.92
75221;BME280;63802;53.232;6.570;2022-10-16T13:59:39;101648.63;;;16.02;62.60
75221;BME280;63802;53.232;6.570;2022-10-16T14:04:44;101667.44;;;15.96;64.25
75221;BME280;63802;53.232;6.570;2022-10-16T14:07:24;101665.44;;;15.93;63.69
75221;BME280;63802;53.232;6.570;2022-10-16T14:09:51;101668.53;;;15.88;64.10
75221;BME280;63802;53.232;6.570;2022-10-16T14:12:18;101661.41;;;15.84;64.35
75221;BME280;63802;53.232;6.570;2022-10-16T14:14:46;101657.09;;;15.83;65.27
75221;BME280;63802;53.232;6.570;2022-10-16T14:17:35;101667.22;;;15.75;64.25
75221;BME280;63802;53.232;6.570;2022-10-16T14:20:04;101663.22;;;15.69;64.51
75221;BME280;63802;53.232;6.570;2022-10-16T14:22:42;101660.06;;;15.67;65.18
75221;BME280;63802;53.232;6.570;2022-10-16T14:28:23;101681.16;;;15.56;66.30
75221;BME280;63802;53.232;6.570;2022-10-16T14:30:58;101686.59;;;15.49;67.00